createdAt,value
2023-03-19T00:01:20.410Z,17.50
2023-03-19T00:04:09.621Z,16.80
2023-03-19T00:06:56.821Z,17.30
2023-03-19T00:09:44.794Z,16.70
2023-03-19T00:12:31.534Z,17.60
2023-03-19T00:15:18.310Z,17.80
2023-03-19T00:18:06.521Z,17.00
2023-03-19T00:20:52.984Z,17.30
2023-03-19T00:23:39.878Z,17.00
2023-03-19T00:26:28.441Z,17.50
2023-03-19T00:29:15.105Z,17.00
2023-03-19T00:32:02.502Z,17.10
2023-03-19T00:34:48.980Z,18.00
2023-03-19T00:37:36.465Z,17.60
2023-03-19T00:40:23.126Z,17.60
2023-03-19T00:43:09.914Z,17.60
2023-03-19T00:45:56.738Z,16.70
2023-03-19T00:48:43.479Z,17.20
2023-03-19T00:51:30.626Z,17.60
2023-03-19T00:54:16.987Z,16.40
2023-03-19T00:57:03.663Z,17.30
2023-03-19T00:59:50.325Z,16.70
2023-03-19T01:02:37.177Z,17.40
2023-03-19T01:05:23.822Z,16.50
2023-03-19T01:08:10.655Z,16.50
2023-03-19T01:10:57.700Z,17.20
2023-03-19T01:13:44.643Z,16.60
2023-03-19T01:16:31.512Z,16.60
2023-03-19T01:19:18.163Z,17.00
2023-03-19T01:22:05.275Z,15.60
2023-03-19T01:24:52.351Z,16.00
2023-03-19T01:27:40.218Z,15.30
2023-03-19T01:30:26.744Z,15.70
2023-03-19T01:33:14.701Z,16.00
2023-03-19T01:36:05.647Z,15.90
2023-03-19T01:38:52.308Z,15.30
2023-03-19T01:41:38.741Z,16.00
2023-03-19T01:44:26.722Z,15.40
2023-03-19T01:47:27.544Z,15.30
2023-03-19T01:50:25.924Z,15.50
2023-03-19T01:53:15.873Z,15.30
2023-03-19T01:56:16.189Z,15.00
2023-03-19T01:59:12.998Z,14.70
2023-03-19T02:02:05.712Z,15.30
2023-03-19T02:04:58.945Z,15.20
2023-03-19T02:07:46.122Z,15.20
2023-03-19T02:10:34.922Z,14.40
2023-03-19T02:13:23.249Z,14.60
2023-03-19T02:16:10.704Z,14.40
2023-03-19T02:18:58.029Z,14.50
2023-03-19T02:21:44.728Z,13.80
2023-03-19T02:24:42.353Z,14.00
2023-03-19T02:27:28.756Z,14.60
2023-03-19T02:30:27.007Z,14.60
2023-03-19T02:33:16.132Z,14.60
2023-03-19T02:36:05.440Z,15.30
2023-03-19T02:38:53.694Z,15.00
2023-03-19T02:46:04.317Z,15.00
2023-03-19T02:48:50.763Z,14.50
2023-03-19T02:56:01.835Z,15.80
2023-03-19T02:58:48.249Z,20.00
2023-03-19T03:05:48.955Z,16.60
2023-03-19T03:08:36.818Z,14.50
2023-03-19T03:11:23.984Z,16.70
2023-03-19T03:14:11.033Z,15.40
2023-03-19T03:16:58.927Z,15.30
2023-03-19T03:19:45.812Z,14.80
2023-03-19T03:22:32.771Z,13.90
2023-03-19T03:25:19.435Z,15.10
2023-03-19T03:28:06.319Z,14.40
2023-03-19T03:31:02.342Z,14.70
2023-03-19T03:33:49.249Z,13.90
2023-03-19T03:36:36.930Z,15.00
2023-03-19T03:39:23.936Z,13.40
2023-03-19T03:42:10.448Z,14.20
2023-03-19T03:44:57.347Z,14.20
2023-03-19T03:47:44.004Z,13.50
2023-03-19T03:50:30.677Z,14.20
2023-03-19T03:53:17.186Z,13.80
2023-03-19T03:56:03.919Z,14.00
2023-03-19T03:58:51.352Z,14.70
2023-03-19T04:01:38.061Z,13.50
2023-03-19T04:04:24.743Z,13.20
2023-03-19T04:07:11.550Z,13.80
2023-03-19T04:09:59.303Z,14.00
2023-03-19T04:12:49.773Z,13.70
2023-03-19T04:15:36.127Z,14.00
2023-03-19T04:18:22.771Z,13.50
2023-03-19T04:21:09.613Z,13.40
2023-03-19T04:23:56.293Z,14.30
2023-03-19T04:26:42.999Z,13.60
2023-03-19T04:29:29.707Z,15.00
2023-03-19T04:32:16.761Z,14.60
2023-03-19T04:35:04.360Z,14.40
2023-03-19T04:37:50.951Z,14.80
2023-03-19T04:40:37.419Z,14.70
2023-03-19T04:43:24.708Z,14.10
2023-03-19T04:46:11.789Z,15.00
2023-03-19T04:48:59.816Z,14.80
2023-03-19T04:51:46.587Z,13.80
2023-03-19T04:54:34.030Z,14.40
2023-03-19T04:57:21.363Z,14.50
2023-03-19T05:00:08.920Z,14.90
2023-03-19T05:02:55.924Z,14.80
2023-03-19T05:05:43.385Z,14.90
2023-03-19T05:08:29.956Z,15.00
2023-03-19T05:11:16.772Z,15.50
2023-03-19T05:14:22.194Z,13.60
2023-03-19T05:17:11.259Z,15.30
2023-03-19T05:19:58.250Z,15.70
2023-03-19T05:22:44.717Z,14.60
2023-03-19T05:25:31.357Z,14.70
2023-03-19T05:28:17.924Z,15.50
2023-03-19T05:31:05.130Z,14.60
2023-03-19T05:33:52.534Z,15.40
2023-03-19T05:36:39.262Z,14.70
2023-03-19T05:39:26.109Z,14.50
2023-03-19T05:42:13.467Z,14.30
2023-03-19T05:45:00.049Z,14.50
2023-03-19T05:47:49.180Z,14.80
2023-03-19T05:50:36.477Z,15.10
2023-03-19T05:53:24.066Z,14.20
2023-03-19T05:56:11.245Z,15.20
2023-03-19T05:58:58.510Z,14.80
2023-03-19T06:01:45.692Z,15.00
2023-03-19T06:04:33.447Z,14.40
2023-03-19T06:07:20.673Z,15.00
2023-03-19T06:10:08.650Z,14.60
2023-03-19T06:12:56.129Z,14.40
2023-03-19T06:15:43.915Z,15.00
2023-03-19T06:18:32.226Z,14.60
2023-03-19T06:21:19.803Z,14.00
2023-03-19T06:24:08.086Z,14.80
2023-03-19T06:26:57.585Z,14.50
2023-03-19T06:29:44.713Z,14.70
2023-03-19T06:32:32.782Z,14.70
2023-03-19T06:35:20.002Z,14.90
2023-03-19T06:38:07.633Z,14.50
2023-03-19T06:40:56.157Z,14.50
2023-03-19T06:43:43.413Z,14.80
2023-03-19T06:46:30.222Z,14.40
2023-03-19T06:49:18.319Z,14.80
2023-03-19T06:52:06.215Z,14.80
2023-03-19T06:54:53.878Z,14.60
2023-03-19T06:57:41.713Z,14.80
2023-03-19T07:00:28.830Z,15.10
2023-03-19T07:03:16.904Z,15.40
2023-03-19T07:06:03.730Z,15.40
2023-03-19T07:08:50.444Z,15.70
2023-03-19T07:13:40.436Z,14.00
2023-03-19T07:16:27.670Z,15.50
2023-03-19T07:19:14.897Z,15.30
2023-03-19T07:22:02.157Z,15.50
2023-03-19T07:24:49.428Z,15.00
2023-03-19T07:27:36.433Z,14.90
2023-03-19T07:30:24.358Z,15.30
2023-03-19T07:33:11.948Z,14.90
2023-03-19T07:37:49.422Z,14.40
2023-03-19T07:40:40.037Z,15.20
2023-03-19T07:43:33.188Z,16.10
2023-03-19T07:46:19.720Z,15.20
2023-03-19T07:49:11.098Z,15.70
2023-03-19T07:52:10.458Z,14.00
2023-03-19T07:56:08.318Z,12.90
2023-03-19T08:00:11.061Z,13.60
2023-03-19T08:03:44.421Z,13.00
2023-03-19T08:06:31.259Z,14.90
2023-03-19T08:09:18.359Z,15.60
2023-03-19T08:12:06.734Z,15.20
2023-03-19T08:14:53.599Z,14.90
2023-03-19T08:18:08.482Z,14.30
2023-03-19T08:21:30.069Z,13.20
2023-03-19T08:25:32.550Z,14.30
2023-03-19T08:29:28.350Z,13.40
2023-03-19T08:32:17.733Z,15.10
2023-03-19T08:35:06.312Z,14.60
2023-03-19T08:37:54.697Z,14.40
2023-03-19T08:40:41.535Z,14.40
2023-03-19T08:43:41.101Z,14.00
2023-03-19T08:47:37.957Z,12.70
2023-03-19T08:51:56.126Z,13.00
2023-03-19T08:55:20.405Z,12.50
2023-03-19T08:58:51.426Z,12.50
2023-03-19T09:02:50.324Z,12.00
2023-03-19T09:06:51.669Z,12.80
2023-03-19T09:10:46.112Z,12.10
2023-03-19T09:14:01.711Z,11.70
2023-03-19T09:18:25.564Z,12.00
2023-03-19T09:21:41.459Z,12.10
2023-03-19T09:25:18.637Z,12.20
2023-03-19T09:28:52.321Z,11.70
2023-03-19T09:44:03.073Z,12.30
2023-03-19T09:47:31.416Z,11.70
2023-03-19T09:51:59.375Z,11.00
2023-03-19T10:05:54.323Z,10.90
2023-03-19T10:09:13.721Z,9.80
2023-03-19T10:13:16.170Z,9.00
2023-03-19T10:16:40.283Z,8.10
2023-03-19T10:19:58.433Z,8.20
2023-03-19T10:34:34.722Z,8.20
2023-03-19T10:37:38.441Z,8.20
2023-03-19T10:41:45.673Z,8.40
2023-03-19T10:55:26.168Z,7.70
2023-03-19T10:58:41.091Z,7.90
2023-03-19T11:14:27.642Z,7.70
2023-03-19T11:28:26.034Z,7.40
2023-03-19T11:58:54.413Z,7.50
2023-03-19T12:02:38.023Z,6.80
2023-03-19T12:07:00.625Z,7.40
2023-03-19T12:20:54.809Z,7.30
2023-03-19T12:24:38.648Z,6.80
2023-03-19T12:38:21.166Z,7.70
2023-03-19T12:41:12.811Z,7.80
2023-03-19T12:44:38.806Z,8.10
2023-03-19T12:47:40.110Z,7.90
2023-03-19T12:52:59.724Z,7.90
2023-03-19T12:56:00.919Z,8.30
2023-03-19T12:58:58.840Z,8.40
2023-03-19T13:01:54.992Z,8.70
2023-03-19T13:07:24.731Z,7.50
2023-03-19T13:11:10.991Z,8.50
2023-03-19T13:14:38.646Z,8.00
2023-03-19T13:17:41.295Z,7.90
2023-03-19T13:20:59.568Z,8.70
2023-03-19T13:23:53.708Z,8.70
2023-03-19T13:26:41.478Z,8.30
2023-03-19T13:29:39.617Z,8.40
2023-03-19T13:32:39.262Z,7.70
2023-03-19T13:35:35.206Z,7.80
2023-03-19T13:39:14.224Z,8.20
2023-03-19T13:43:30.916Z,7.60
2023-03-19T13:46:17.849Z,7.90
2023-03-19T13:49:21.276Z,7.40
2023-03-19T13:52:11.942Z,8.30
2023-03-19T13:55:30.294Z,8.10
2023-03-19T13:59:03.980Z,7.30
2023-03-19T14:01:51.159Z,7.70
2023-03-19T14:04:38.645Z,7.30
2023-03-19T14:07:29.097Z,7.30
2023-03-19T14:10:27.214Z,7.40
2023-03-19T14:13:28.669Z,7.40
2023-03-19T14:16:29.948Z,7.30
2023-03-19T14:19:21.174Z,7.30
2023-03-19T14:22:39.095Z,7.50
2023-03-19T14:25:48.083Z,7.60
2023-03-19T14:28:45.588Z,7.50
2023-03-19T14:32:07.053Z,7.80
2023-03-19T14:34:57.030Z,7.40
2023-03-19T14:37:49.344Z,7.40
2023-03-19T14:40:45.108Z,6.60
2023-03-19T14:44:08.397Z,7.60
2023-03-19T14:47:33.783Z,7.50
2023-03-19T14:50:33.911Z,7.80
2023-03-19T14:53:39.846Z,7.20
2023-03-19T14:56:32.557Z,7.70
2023-03-19T14:59:36.970Z,7.20
2023-03-19T15:02:42.619Z,7.60
2023-03-19T15:05:36.799Z,7.40
2023-03-19T15:08:24.016Z,7.10
2023-03-19T15:11:13.482Z,7.40
2023-03-19T15:14:03.161Z,6.90
2023-03-19T15:17:15.578Z,6.90
2023-03-19T15:20:06.307Z,6.90
2023-03-19T15:23:13.353Z,6.80
2023-03-19T15:26:14.540Z,7.40
2023-03-19T15:29:04.755Z,7.00
2023-03-19T15:32:04.791Z,7.50
2023-03-19T15:35:03.611Z,6.70
2023-03-19T15:38:00.305Z,7.30
2023-03-19T15:40:52.059Z,7.20
2023-03-19T15:43:41.600Z,7.00
2023-03-19T15:46:33.538Z,7.20
2023-03-19T15:49:33.654Z,6.80
2023-03-19T15:52:21.203Z,7.20
2023-03-19T15:55:11.590Z,7.10
2023-03-19T15:58:08.666Z,6.90
2023-03-19T16:00:56.447Z,7.70
2023-03-19T16:03:46.426Z,7.60
2023-03-19T16:12:42.776Z,7.20
2023-03-19T16:15:46.175Z,7.50
2023-03-19T16:18:53.187Z,7.90
2023-03-19T16:21:43.126Z,7.60
2023-03-19T16:24:39.584Z,7.30
2023-03-19T16:27:37.083Z,6.90
2023-03-19T16:30:27.666Z,7.20
2023-03-19T16:33:15.110Z,7.30
2023-03-19T16:36:03.237Z,6.60
2023-03-19T16:39:23.424Z,6.70
2023-03-19T16:42:13.117Z,6.50
2023-03-19T16:45:15.662Z,6.30
2023-03-19T16:48:07.085Z,6.60
2023-03-19T16:50:53.555Z,6.80
2023-03-19T16:53:40.604Z,6.40
2023-03-19T16:56:31.305Z,6.40
2023-03-19T17:08:55.880Z,6.20
2023-03-19T17:11:43.436Z,6.70
2023-03-19T17:14:31.371Z,7.20
2023-03-19T17:17:20.659Z,7.20
2023-03-19T17:20:21.010Z,6.90
2023-03-19T17:23:14.345Z,8.20
2023-03-19T17:26:28.128Z,7.70
2023-03-19T17:29:14.492Z,7.90
2023-03-19T17:32:05.339Z,9.70
2023-03-19T17:34:52.253Z,9.40
2023-03-19T17:37:41.513Z,7.80
2023-03-19T17:40:35.037Z,12.50
2023-03-19T17:43:22.253Z,12.20
2023-03-19T17:46:15.204Z,9.80
2023-03-19T17:49:04.855Z,13.50
2023-03-19T17:51:52.072Z,16.00
2023-03-19T17:54:39.132Z,13.90
2023-03-19T17:57:27.135Z,12.80
2023-03-19T18:00:20.765Z,14.60
2023-03-19T18:03:14.093Z,13.70
2023-03-19T18:06:05.627Z,13.30
2023-03-19T18:08:52.550Z,12.20
2023-03-19T18:11:40.558Z,12.50
2023-03-19T18:14:27.001Z,13.20
2023-03-19T18:17:20.881Z,16.20
2023-03-19T18:20:13.342Z,69.90
2023-03-19T18:23:06.382Z,14.70
2023-03-19T18:25:53.203Z,15.30
2023-03-19T18:28:40.347Z,16.30
2023-03-19T18:31:31.889Z,15.60
2023-03-19T18:34:19.670Z,14.00
2023-03-19T18:37:06.266Z,14.10
2023-03-19T18:43:06.100Z,23.70
2023-03-19T18:45:54.325Z,21.80
2023-03-19T18:48:42.381Z,23.00
2023-03-19T18:51:29.227Z,23.00
2023-03-19T18:54:16.051Z,22.30
2023-03-19T18:57:03.110Z,21.50
2023-03-19T18:59:49.810Z,29.10
2023-03-19T19:02:38.343Z,24.40
2023-03-19T19:05:31.482Z,25.90
2023-03-19T19:08:20.850Z,23.10
2023-03-19T19:11:09.070Z,25.50
2023-03-19T19:14:03.252Z,25.10
2023-03-19T19:16:51.314Z,23.60
2023-03-19T19:19:42.926Z,23.90
2023-03-19T19:22:43.726Z,27.00
2023-03-19T19:25:30.617Z,31.80
2023-03-19T19:28:28.390Z,27.20
2023-03-19T19:31:26.758Z,25.60
2023-03-19T19:34:15.645Z,24.30
2023-03-19T19:37:06.026Z,25.90
2023-03-19T19:39:57.090Z,25.20
2023-03-19T19:42:48.796Z,25.40
2023-03-19T19:45:39.972Z,27.00
2023-03-19T19:48:35.616Z,26.30
2023-03-19T19:57:42.232Z,24.20
2023-03-19T20:00:35.817Z,26.90
2023-03-19T20:03:39.513Z,26.90
2023-03-19T20:06:28.665Z,27.30
2023-03-19T20:09:16.862Z,27.80
2023-03-19T20:12:03.842Z,28.40
2023-03-19T20:17:54.126Z,30.50
2023-03-19T20:20:40.781Z,28.90
2023-03-19T20:23:29.114Z,30.90
2023-03-19T20:26:19.630Z,32.10
2023-03-19T20:29:06.092Z,31.60
2023-03-19T20:31:53.106Z,31.60
2023-03-19T20:34:40.243Z,32.40
2023-03-19T20:37:27.513Z,33.40
2023-03-19T20:40:18.132Z,33.20
2023-03-19T20:43:07.781Z,31.20
2023-03-19T20:45:57.032Z,30.80
2023-03-19T20:48:43.897Z,29.80
2023-03-19T20:51:31.876Z,29.00
2023-03-19T20:54:18.799Z,28.10
2023-03-19T20:57:05.267Z,28.80
2023-03-19T20:59:52.187Z,27.90
2023-03-19T21:02:38.945Z,29.20
2023-03-19T21:05:35.268Z,31.20
2023-03-19T21:08:48.860Z,30.70
2023-03-19T21:11:41.997Z,29.30
2023-03-19T21:14:28.691Z,28.90
2023-03-19T21:17:15.536Z,26.90
2023-03-19T21:20:02.165Z,28.40
2023-03-19T21:22:54.088Z,27.70
2023-03-19T21:25:42.718Z,26.30
2023-03-19T21:28:34.996Z,26.40
2023-03-19T21:31:21.754Z,26.60
2023-03-19T21:34:13.691Z,26.40
2023-03-19T21:37:00.743Z,26.40
2023-03-19T21:39:48.096Z,25.40
2023-03-19T21:42:36.712Z,25.80
2023-03-19T21:45:29.116Z,25.60
2023-03-19T21:48:25.087Z,24.30
2023-03-19T21:51:16.732Z,24.80
2023-03-19T21:54:03.078Z,25.50
2023-03-19T21:56:49.877Z,24.60
2023-03-19T21:59:36.613Z,25.00
2023-03-19T22:02:26.164Z,24.10
2023-03-19T22:05:31.212Z,24.70
2023-03-19T22:08:20.508Z,25.70
2023-03-19T22:11:18.563Z,24.20
2023-03-19T22:14:18.000Z,25.40
2023-03-19T22:17:05.786Z,24.90
2023-03-19T22:19:52.737Z,25.00
2023-03-19T22:22:40.281Z,25.20
2023-03-19T22:25:31.551Z,26.40
2023-03-19T22:28:31.606Z,26.60
2023-03-19T22:31:18.248Z,26.60
2023-03-19T22:34:04.678Z,26.40
2023-03-19T22:36:51.612Z,25.70
2023-03-19T22:39:37.815Z,25.60
2023-03-19T22:42:26.360Z,26.00
2023-03-19T22:45:32.150Z,26.20
2023-03-19T22:48:20.140Z,25.30
2023-03-19T22:51:08.136Z,25.50
2023-03-19T22:53:55.541Z,25.30
2023-03-19T22:56:42.091Z,25.50
2023-03-19T22:59:28.586Z,25.30
2023-03-19T23:02:16.467Z,25.40
2023-03-19T23:05:32.515Z,25.10
2023-03-19T23:08:19.167Z,25.70
2023-03-19T23:11:05.933Z,25.90
2023-03-19T23:13:53.253Z,26.90
2023-03-19T23:16:45.812Z,26.10
2023-03-19T23:19:38.467Z,27.10
2023-03-19T23:22:25.108Z,25.90
2023-03-19T23:25:26.255Z,26.70
2023-03-19T23:28:22.647Z,27.10
2023-03-19T23:31:10.362Z,26.60
2023-03-19T23:33:56.971Z,26.80
2023-03-19T23:36:44.024Z,27.10
2023-03-19T23:39:30.529Z,27.60
2023-03-19T23:42:27.754Z,27.00
2023-03-19T23:45:38.031Z,26.80
2023-03-19T23:48:28.418Z,28.30
2023-03-19T23:51:17.232Z,28.70
2023-03-19T23:54:03.884Z,28.50
2023-03-19T23:56:52.172Z,27.90
2023-03-19T23:59:41.817Z,27.50
